sensor_id;sensor_type;location;lat;lon;timestamp;pressure;altitude;pressure_sealevel;temperature;humidity
49979;BME280;35869;50.990;6.962;2022-08-05T00:00:29;100933.47;;;23.61;64.67
49979;BME280;35869;50.990;6.962;2022-08-05T00:05:29;100932.06;;;23.66;66.17
49979;BME280;35869;50.990;6.962;2022-08-05T00:10:29;100938.38;;;23.56;68.39
49979;BME280;35869;50.990;6.962;2022-08-05T00:15:30;100951.53;;;23.48;67.48
49979;BME280;35869;50.990;6.962;2022-08-05T00:20:30;100955.59;;;23.42;68.49
49979;BME280;35869;50.990;6.962;2022-08-05T00:25:30;100947.66;;;23.32;69.54
49979;BME280;35869;50.990;6.962;2022-08-05T00:30:30;100948.56;;;23.23;67.74
49979;BME280;35869;50.990;6.962;2022-08-05T00:35:31;100932.25;;;23.18;69.73
49979;BME280;35869;50.990;6.962;2022-08-05T00:40:31;100925.38;;;23.25;68.34
49979;BME280;35869;50.990;6.962;2022-08-05T00:45:31;100927.09;;;23.07;68.86
49979;BME280;35869;50.990;6.962;2022-08-05T00:50:32;100935.47;;;23.02;67.22
49979;BME280;35869;50.990;6.962;2022-08-05T00:55:32;100934.09;;;22.98;69.81
49979;BME280;35869;50.990;6.962;2022-08-05T01:00:32;100940.94;;;22.91;69.75
49979;BME280;35869;50.990;6.962;2022-08-05T01:05:33;100943.75;;;22.90;69.30
49979;BME280;35869;50.990;6.962;2022-08-05T01:10:43;100960.34;;;22.92;70.44
49979;BME280;35869;50.990;6.962;2022-08-05T01:15:49;100961.72;;;22.76;70.95
49979;BME280;35869;50.990;6.962;2022-08-05T01:36:17;100981.53;;;22.43;73.35
49979;BME280;35869;50.990;6.962;2022-08-05T01:41:21;100985.53;;;22.28;72.43
49979;BME280;35869;50.990;6.962;2022-08-05T01:46:23;100992.94;;;22.24;71.64
49979;BME280;35869;50.990;6.962;2022-08-05T01:51:24;100992.75;;;22.16;73.53
49979;BME280;35869;50.990;6.962;2022-08-05T01:56:29;100995.41;;;22.16;72.03
49979;BME280;35869;50.990;6.962;2022-08-05T02:01:32;100994.34;;;21.98;73.84
49979;BME280;35869;50.990;6.962;2022-08-05T02:06:33;101002.69;;;21.83;75.46
49979;BME280;35869;50.990;6.962;2022-08-05T02:11:42;101026.06;;;21.78;74.62
49979;BME280;35869;50.990;6.962;2022-08-05T02:16:46;101054.16;;;21.49;77.56
49979;BME280;35869;50.990;6.962;2022-08-05T02:27:20;101081.31;;;21.72;76.78
49979;BME280;35869;50.990;6.962;2022-08-05T02:32:24;101091.81;;;21.62;78.67
49979;BME280;35869;50.990;6.962;2022-08-05T02:37:27;101120.69;;;21.65;77.05
49979;BME280;35869;50.990;6.962;2022-08-05T02:42:30;101138.75;;;21.60;78.89
49979;BME280;35869;50.990;6.962;2022-08-05T02:47:33;101156.34;;;21.50;79.62
49979;BME280;35869;50.990;6.962;2022-08-05T02:52:34;101154.03;;;21.36;81.62
49979;BME280;35869;50.990;6.962;2022-08-05T02:57:37;101136.78;;;21.09;82.51
49979;BME280;35869;50.990;6.962;2022-08-05T03:02:39;101016.78;;;20.80;84.62
49979;BME280;35869;50.990;6.962;2022-08-05T03:07:41;100927.69;;;20.82;83.24
49979;BME280;35869;50.990;6.962;2022-08-05T03:12:42;100994.94;;;20.98;84.97
49979;BME280;35869;50.990;6.962;2022-08-05T03:17:42;101037.22;;;20.98;84.99
49979;BME280;35869;50.990;6.962;2022-08-05T03:22:42;101089.63;;;20.93;82.28
49979;BME280;35869;50.990;6.962;2022-08-05T03:27:42;101080.50;;;20.86;84.63
49979;BME280;35869;50.990;6.962;2022-08-05T03:32:43;101069.34;;;20.94;85.46
49979;BME280;35869;50.990;6.962;2022-08-05T03:37:43;101114.28;;;20.83;88.24
49979;BME280;35869;50.990;6.962;2022-08-05T03:42:43;101103.00;;;20.81;86.85
49979;BME280;35869;50.990;6.962;2022-08-05T03:47:44;101081.00;;;20.80;86.43
49979;BME280;35869;50.990;6.962;2022-08-05T03:53:00;101072.28;;;20.68;86.48
49979;BME280;35869;50.990;6.962;2022-08-05T03:58:04;101071.22;;;20.71;86.05
49979;BME280;35869;50.990;6.962;2022-08-05T04:03:10;101062.59;;;20.58;87.26
49979;BME280;35869;50.990;6.962;2022-08-05T04:08:12;101053.59;;;20.60;89.03
49979;BME280;35869;50.990;6.962;2022-08-05T04:13:13;101046.16;;;20.54;88.68
49979;BME280;35869;50.990;6.962;2022-08-05T04:18:14;101035.25;;;20.59;87.78
49979;BME280;35869;50.990;6.962;2022-08-05T04:23:15;101023.94;;;20.57;88.40
49979;BME280;35869;50.990;6.962;2022-08-05T04:28:17;100994.53;;;20.61;86.89
49979;BME280;35869;50.990;6.962;2022-08-05T04:33:17;100934.47;;;20.63;86.95
49979;BME280;35869;50.990;6.962;2022-08-05T04:38:18;100991.63;;;20.64;87.19
49979;BME280;35869;50.990;6.962;2022-08-05T04:43:18;100980.28;;;20.53;88.68
49979;BME280;35869;50.990;6.962;2022-08-05T04:48:18;101045.69;;;20.49;89.58
49979;BME280;35869;50.990;6.962;2022-08-05T04:53:18;101057.69;;;20.42;91.09
49979;BME280;35869;50.990;6.962;2022-08-05T04:58:19;101076.41;;;20.39;92.78
49979;BME280;35869;50.990;6.962;2022-08-05T05:03:19;101074.13;;;20.45;89.94
49979;BME280;35869;50.990;6.962;2022-08-05T05:08:19;101066.56;;;20.41;91.21
49979;BME280;35869;50.990;6.962;2022-08-05T05:13:19;101075.22;;;20.32;91.52
49979;BME280;35869;50.990;6.962;2022-08-05T05:18:20;101075.47;;;20.29;92.56
49979;BME280;35869;50.990;6.962;2022-08-05T05:23:21;101056.72;;;20.43;89.87
49979;BME280;35869;50.990;6.962;2022-08-05T05:28:21;101059.88;;;20.48;90.11
49979;BME280;35869;50.990;6.962;2022-08-05T05:33:21;101050.84;;;20.50;88.56
49979;BME280;35869;50.990;6.962;2022-08-05T05:38:21;101067.06;;;20.46;89.33
49979;BME280;35869;50.990;6.962;2022-08-05T05:43:22;101061.16;;;20.42;90.69
49979;BME280;35869;50.990;6.962;2022-08-05T05:48:22;101065.72;;;20.52;91.15
49979;BME280;35869;50.990;6.962;2022-08-05T05:53:22;101064.19;;;20.49;91.72
49979;BME280;35869;50.990;6.962;2022-08-05T05:58:23;101082.31;;;20.31;92.61
49979;BME280;35869;50.990;6.962;2022-08-05T06:03:23;101080.75;;;20.29;94.10
49979;BME280;35869;50.990;6.962;2022-08-05T06:08:23;101090.94;;;20.33;93.93
49979;BME280;35869;50.990;6.962;2022-08-05T06:13:23;101089.59;;;20.39;92.20
49979;BME280;35869;50.990;6.962;2022-08-05T06:18:24;101094.31;;;20.35;94.37
49979;BME280;35869;50.990;6.962;2022-08-05T06:23:24;101106.28;;;20.39;93.43
49979;BME280;35869;50.990;6.962;2022-08-05T06:28:24;101119.13;;;20.44;92.30
49979;BME280;35869;50.990;6.962;2022-08-05T06:33:25;101121.66;;;20.45;91.56
49979;BME280;35869;50.990;6.962;2022-08-05T06:38:25;101120.78;;;20.45;94.99
49979;BME280;35869;50.990;6.962;2022-08-05T06:43:25;101120.78;;;20.45;91.87
49979;BME280;35869;50.990;6.962;2022-08-05T06:48:25;101116.75;;;20.52;91.76
49979;BME280;35869;50.990;6.962;2022-08-05T06:53:26;101119.84;;;20.57;90.08
49979;BME280;35869;50.990;6.962;2022-08-05T06:58:27;101121.78;;;20.55;90.00
49979;BME280;35869;50.990;6.962;2022-08-05T07:03:27;101138.94;;;20.49;90.45
49979;BME280;35869;50.990;6.962;2022-08-05T07:08:28;101130.41;;;20.57;91.24
49979;BME280;35869;50.990;6.962;2022-08-05T07:13:28;101140.53;;;20.52;89.55
49979;BME280;35869;50.990;6.962;2022-08-05T07:18:28;101146.53;;;20.54;92.24
49979;BME280;35869;50.990;6.962;2022-08-05T07:23:29;101152.03;;;20.51;92.23
49979;BME280;35869;50.990;6.962;2022-08-05T07:28:29;101173.41;;;20.48;91.78
49979;BME280;35869;50.990;6.962;2022-08-05T07:33:29;101180.13;;;20.52;92.15
49979;BME280;35869;50.990;6.962;2022-08-05T07:38:30;101181.06;;;20.51;92.51
49979;BME280;35869;50.990;6.962;2022-08-05T07:43:30;101186.34;;;20.51;91.46
49979;BME280;35869;50.990;6.962;2022-08-05T07:48:30;101189.00;;;20.51;91.45
49979;BME280;35869;50.990;6.962;2022-08-05T07:53:31;101194.72;;;20.45;91.70
49979;BME280;35869;50.990;6.962;2022-08-05T07:58:31;101201.22;;;20.41;93.55
49979;BME280;35869;50.990;6.962;2022-08-05T08:03:31;101212.75;;;20.29;92.77
49979;BME280;35869;50.990;6.962;2022-08-05T08:08:31;101214.66;;;20.38;91.20
49979;BME280;35869;50.990;6.962;2022-08-05T08:13:32;101225.00;;;20.41;92.35
49979;BME280;35869;50.990;6.962;2022-08-05T08:18:32;101241.66;;;20.30;93.99
49979;BME280;35869;50.990;6.962;2022-08-05T08:23:32;101248.72;;;20.18;92.14
49979;BME280;35869;50.990;6.962;2022-08-05T08:28:32;101254.59;;;20.22;92.00
49979;BME280;35869;50.990;6.962;2022-08-05T08:33:34;101251.72;;;20.25;93.55
49979;BME280;35869;50.990;6.962;2022-08-05T08:38:34;101270.84;;;20.05;94.98
49979;BME280;35869;50.990;6.962;2022-08-05T08:43:38;101261.53;;;20.12;94.27
49979;BME280;35869;50.990;6.962;2022-08-05T08:48:40;101273.88;;;20.00;93.53
49979;BME280;35869;50.990;6.962;2022-08-05T08:53:43;101287.78;;;20.02;94.08
49979;BME280;35869;50.990;6.962;2022-08-05T08:58:43;101291.72;;;19.96;92.42
49979;BME280;35869;50.990;6.962;2022-08-05T09:03:49;101317.00;;;19.88;93.59
49979;BME280;35869;50.990;6.962;2022-08-05T09:08:50;101317.00;;;19.88;92.63
49979;BME280;35869;50.990;6.962;2022-08-05T09:13:50;101327.88;;;19.83;93.16
49979;BME280;35869;50.990;6.962;2022-08-05T09:18:51;101319.28;;;19.68;94.96
49979;BME280;35869;50.990;6.962;2022-08-05T09:24:02;101327.19;;;19.68;94.17
49979;BME280;35869;50.990;6.962;2022-08-05T09:29:05;101322.25;;;19.64;94.03
49979;BME280;35869;50.990;6.962;2022-08-05T09:34:07;101322.59;;;19.59;91.62
49979;BME280;35869;50.990;6.962;2022-08-05T09:39:10;101333.16;;;19.59;91.41
49979;BME280;35869;50.990;6.962;2022-08-05T09:44:10;101324.19;;;19.49;89.71
49979;BME280;35869;50.990;6.962;2022-08-05T09:49:22;101331.28;;;19.36;93.03
49979;BME280;35869;50.990;6.962;2022-08-05T09:54:29;101347.91;;;19.49;93.35
49979;BME280;35869;50.990;6.962;2022-08-05T09:59:29;101350.66;;;19.48;92.56
49979;BME280;35869;50.990;6.962;2022-08-05T10:04:36;101364.25;;;19.54;92.21
49979;BME280;35869;50.990;6.962;2022-08-05T10:09:36;101372.94;;;19.31;92.99
49979;BME280;35869;50.990;6.962;2022-08-05T10:14:37;101381.47;;;19.47;92.69
49979;BME280;35869;50.990;6.962;2022-08-05T10:19:37;101384.81;;;19.49;92.21
49979;BME280;35869;50.990;6.962;2022-08-05T10:24:37;101395.81;;;19.30;92.99
49979;BME280;35869;50.990;6.962;2022-08-05T10:29:38;101391.59;;;19.28;92.79
49979;BME280;35869;50.990;6.962;2022-08-05T10:34:38;101398.56;;;19.03;91.71
49979;BME280;35869;50.990;6.962;2022-08-05T10:39:41;101411.00;;;19.27;92.90
49979;BME280;35869;50.990;6.962;2022-08-05T10:44:44;101423.31;;;19.39;92.62
49979;BME280;35869;50.990;6.962;2022-08-05T10:50:02;101443.88;;;19.34;91.82
49979;BME280;35869;50.990;6.962;2022-08-05T10:55:05;101451.06;;;19.32;89.68
49979;BME280;35869;50.990;6.962;2022-08-05T11:05:14;101465.50;;;19.39;86.75
49979;BME280;35869;50.990;6.962;2022-08-05T11:10:25;101467.91;;;19.55;87.76
49979;BME280;35869;50.990;6.962;2022-08-05T11:15:36;101482.06;;;19.66;85.64
49979;BME280;35869;50.990;6.962;2022-08-05T11:20:44;101488.38;;;19.89;85.44
49979;BME280;35869;50.990;6.962;2022-08-05T11:26:02;101479.13;;;19.71;84.52
49979;BME280;35869;50.990;6.962;2022-08-05T11:36:05;101484.22;;;20.35;82.63
49979;BME280;35869;50.990;6.962;2022-08-05T11:46:12;101477.06;;;20.72;78.28
49979;BME280;35869;50.990;6.962;2022-08-05T11:51:13;101484.97;;;21.07;77.64
49979;BME280;35869;50.990;6.962;2022-08-05T11:56:14;101478.50;;;21.11;77.53
49979;BME280;35869;50.990;6.962;2022-08-05T12:01:17;101476.28;;;21.29;77.75
49979;BME280;35869;50.990;6.962;2022-08-05T12:06:23;101482.66;;;21.60;72.12
49979;BME280;35869;50.990;6.962;2022-08-05T12:11:26;101488.84;;;22.04;71.28
49979;BME280;35869;50.990;6.962;2022-08-05T12:16:31;101482.59;;;22.16;72.55
49979;BME280;35869;50.990;6.962;2022-08-05T12:21:34;101481.94;;;22.67;70.35
49979;BME280;35869;50.990;6.962;2022-08-05T12:31:39;101490.41;;;22.93;68.67
49979;BME280;35869;50.990;6.962;2022-08-05T12:36:40;101494.78;;;23.04;62.81
49979;BME280;35869;50.990;6.962;2022-08-05T12:41:41;101501.56;;;22.97;66.14
49979;BME280;35869;50.990;6.962;2022-08-05T12:46:42;101506.66;;;23.30;66.00
49979;BME280;35869;50.990;6.962;2022-08-05T12:57:00;101504.00;;;23.82;64.96
49979;BME280;35869;50.990;6.962;2022-08-05T13:02:05;101503.75;;;23.94;65.53
49979;BME280;35869;50.990;6.962;2022-08-05T13:07:12;101506.75;;;24.30;62.58
49979;BME280;35869;50.990;6.962;2022-08-05T13:12:14;101514.84;;;24.19;60.81
49979;BME280;35869;50.990;6.962;2022-08-05T13:22:15;101525.34;;;23.80;64.27
49979;BME280;35869;50.990;6.962;2022-08-05T13:27:27;101538.06;;;24.27;61.31
49979;BME280;35869;50.990;6.962;2022-08-05T13:32:27;101535.03;;;24.51;60.11
49979;BME280;35869;50.990;6.962;2022-08-05T13:37:28;101547.22;;;24.43;58.33
49979;BME280;35869;50.990;6.962;2022-08-05T13:42:28;101545.00;;;24.49;60.83
49979;BME280;35869;50.990;6.962;2022-08-05T13:47:28;101535.63;;;24.54;60.09
49979;BME280;35869;50.990;6.962;2022-08-05T13:52:29;101540.53;;;24.59;57.97
49979;BME280;35869;50.990;6.962;2022-08-05T13:57:29;101537.03;;;24.87;60.02
49979;BME280;35869;50.990;6.962;2022-08-05T14:02:29;101536.47;;;24.74;57.74
49979;BME280;35869;50.990;6.962;2022-08-05T14:12:30;101553.97;;;24.07;60.05
49979;BME280;35869;50.990;6.962;2022-08-05T14:17:30;101547.78;;;23.97;59.70
49979;BME280;35869;50.990;6.962;2022-08-05T14:22:31;101566.72;;;23.83;60.29
49979;BME280;35869;50.990;6.962;2022-08-05T14:27:34;101580.53;;;23.56;61.90
49979;BME280;35869;50.990;6.962;2022-08-05T14:32:34;101588.94;;;23.61;61.60
49979;BME280;35869;50.990;6.962;2022-08-05T14:37:35;101587.47;;;23.26;62.29
49979;BME280;35869;50.990;6.962;2022-08-05T14:42:35;101586.16;;;23.21;63.06
49979;BME280;35869;50.990;6.962;2022-08-05T14:47:35;101588.81;;;23.00;60.28
49979;BME280;35869;50.990;6.962;2022-08-05T14:52:36;101589.97;;;23.07;62.49
49979;BME280;35869;50.990;6.962;2022-08-05T14:57:36;101581.31;;;23.05;56.99
49979;BME280;35869;50.990;6.962;2022-08-05T15:02:36;101579.84;;;23.12;56.10
49979;BME280;35869;50.990;6.962;2022-08-05T15:07:36;101595.44;;;23.05;57.52
49979;BME280;35869;50.990;6.962;2022-08-05T15:12:37;101594.03;;;22.90;59.67
49979;BME280;35869;50.990;6.962;2022-08-05T15:17:37;101588.34;;;22.95;58.93
49979;BME280;35869;50.990;6.962;2022-08-05T15:22:38;101584.53;;;22.76;56.79
49979;BME280;35869;50.990;6.962;2022-08-05T15:27:38;101583.22;;;22.71;55.73
49979;BME280;35869;50.990;6.962;2022-08-05T15:32:38;101597.63;;;23.00;56.16
49979;BME280;35869;50.990;6.962;2022-08-05T15:37:39;101600.22;;;22.68;57.67
49979;BME280;35869;50.990;6.962;2022-08-05T15:42:39;101595.97;;;22.77;59.84
49979;BME280;35869;50.990;6.962;2022-08-05T15:47:41;101597.53;;;22.79;60.02
49979;BME280;35869;50.990;6.962;2022-08-05T15:52:42;101594.16;;;22.88;57.96
49979;BME280;35869;50.990;6.962;2022-08-05T15:57:43;101594.41;;;22.74;58.53
49979;BME280;35869;50.990;6.962;2022-08-05T16:02:43;101602.19;;;22.98;56.32
49979;BME280;35869;50.990;6.962;2022-08-05T16:07:43;101607.47;;;22.98;59.92
49979;BME280;35869;50.990;6.962;2022-08-05T16:12:44;101616.03;;;23.02;56.26
49979;BME280;35869;50.990;6.962;2022-08-05T16:17:44;101614.34;;;23.01;58.30
49979;BME280;35869;50.990;6.962;2022-08-05T16:22:44;101618.09;;;22.98;60.82
49979;BME280;35869;50.990;6.962;2022-08-05T16:27:45;101618.50;;;22.94;58.96
49979;BME280;35869;50.990;6.962;2022-08-05T16:32:45;101623.06;;;22.92;56.12
49979;BME280;35869;50.990;6.962;2022-08-05T16:37:45;101627.34;;;23.04;56.81
49979;BME280;35869;50.990;6.962;2022-08-05T16:42:45;101633.78;;;22.90;54.17
49979;BME280;35869;50.990;6.962;2022-08-05T16:47:46;101643.75;;;22.86;58.10
49979;BME280;35869;50.990;6.962;2022-08-05T16:52:46;101638.25;;;22.78;59.86
49979;BME280;35869;50.990;6.962;2022-08-05T16:57:46;101647.88;;;22.79;59.71
49979;BME280;35869;50.990;6.962;2022-08-05T17:02:46;101648.66;;;22.70;55.38
49979;BME280;35869;50.990;6.962;2022-08-05T17:07:47;101653.72;;;22.51;58.79
49979;BME280;35869;50.990;6.962;2022-08-05T17:12:47;101659.84;;;22.62;52.33
49979;BME280;35869;50.990;6.962;2022-08-05T17:17:47;101665.28;;;22.50;53.06
49979;BME280;35869;50.990;6.962;2022-08-05T17:22:48;101671.81;;;22.46;55.01
49979;BME280;35869;50.990;6.962;2022-08-05T17:27:49;101669.66;;;22.28;49.56
49979;BME280;35869;50.990;6.962;2022-08-05T17:32:49;101682.50;;;22.22;50.86
49979;BME280;35869;50.990;6.962;2022-08-05T17:37:50;101682.03;;;22.28;53.44
49979;BME280;35869;50.990;6.962;2022-08-05T17:42:50;101680.97;;;22.30;50.40
49979;BME280;35869;50.990;6.962;2022-08-05T17:47:51;101679.50;;;22.26;50.00
49979;BME280;35869;50.990;6.962;2022-08-05T17:52:52;101686.47;;;22.16;48.45
49979;BME280;35869;50.990;6.962;2022-08-05T17:57:52;101697.16;;;22.03;48.94
49979;BME280;35869;50.990;6.962;2022-08-05T18:02:52;101717.81;;;21.98;53.38
49979;BME280;35869;50.990;6.962;2022-08-05T18:07:53;101719.53;;;21.99;52.20
49979;BME280;35869;50.990;6.962;2022-08-05T18:12:53;101720.25;;;22.01;50.61
49979;BME280;35869;50.990;6.962;2022-08-05T18:17:53;101739.59;;;21.91;53.48
49979;BME280;35869;50.990;6.962;2022-08-05T18:22:54;101746.78;;;21.77;53.63
49979;BME280;35869;50.990;6.962;2022-08-05T18:27:54;101763.59;;;21.65;48.98
49979;BME280;35869;50.990;6.962;2022-08-05T18:32:54;101761.06;;;21.64;51.76
49979;BME280;35869;50.990;6.962;2022-08-05T18:37:54;101773.16;;;21.55;54.52
49979;BME280;35869;50.990;6.962;2022-08-05T18:42:55;101772.91;;;21.34;53.12
49979;BME280;35869;50.990;6.962;2022-08-05T18:47:55;101781.09;;;21.31;53.71
49979;BME280;35869;50.990;6.962;2022-08-05T18:52:56;101784.03;;;21.26;52.39
49979;BME280;35869;50.990;6.962;2022-08-05T18:57:56;101777.22;;;21.11;50.40
49979;BME280;35869;50.990;6.962;2022-08-05T19:02:57;101793.00;;;21.00;52.36
49979;BME280;35869;50.990;6.962;2022-08-05T19:07:57;101796.94;;;20.82;52.42
49979;BME280;35869;50.990;6.962;2022-08-05T19:12:58;101808.13;;;20.85;53.86
49979;BME280;35869;50.990;6.962;2022-08-05T19:17:59;101821.66;;;20.68;54.00
49979;BME280;35869;50.990;6.962;2022-08-05T19:22:59;101826.53;;;20.61;53.09
49979;BME280;35869;50.990;6.962;2022-08-05T19:28:00;101835.69;;;20.43;50.80
49979;BME280;35869;50.990;6.962;2022-08-05T19:33:00;101851.41;;;20.32;53.08
49979;BME280;35869;50.990;6.962;2022-08-05T19:38:00;101859.22;;;20.33;51.98
49979;BME280;35869;50.990;6.962;2022-08-05T19:43:00;101874.53;;;20.28;54.81
49979;BME280;35869;50.990;6.962;2022-08-05T19:48:01;101887.41;;;20.20;53.98
49979;BME280;35869;50.990;6.962;2022-08-05T19:53:01;101891.97;;;20.04;54.22
49979;BME280;35869;50.990;6.962;2022-08-05T19:58:01;101896.81;;;19.97;54.48
49979;BME280;35869;50.990;6.962;2022-08-05T20:03:02;101910.97;;;19.96;53.70
49979;BME280;35869;50.990;6.962;2022-08-05T20:08:02;101915.13;;;19.86;55.51
49979;BME280;35869;50.990;6.962;2022-08-05T20:13:02;101914.97;;;19.75;55.45
49979;BME280;35869;50.990;6.962;2022-08-05T20:18:04;101930.72;;;19.62;54.54
49979;BME280;35869;50.990;6.962;2022-08-05T20:23:04;101939.22;;;19.53;55.00
49979;BME280;35869;50.990;6.962;2022-08-05T20:28:07;101949.28;;;19.46;56.62
49979;BME280;35869;50.990;6.962;2022-08-05T20:33:08;101955.75;;;19.40;56.71
49979;BME280;35869;50.990;6.962;2022-08-05T20:38:08;101959.16;;;19.28;56.06
49979;BME280;35869;50.990;6.962;2022-08-05T20:43:08;101967.53;;;19.21;57.47
49979;BME280;35869;50.990;6.962;2022-08-05T20:48:09;101980.34;;;19.12;57.69
49979;BME280;35869;50.990;6.962;2022-08-05T20:53:09;101980.25;;;19.00;57.77
49979;BME280;35869;50.990;6.962;2022-08-05T20:58:09;101985.19;;;18.90;57.93
49979;BME280;35869;50.990;6.962;2022-08-05T21:03:09;101998.72;;;18.84;58.37
49979;BME280;35869;50.990;6.962;2022-08-05T21:08:10;101995.03;;;18.72;57.49
49979;BME280;35869;50.990;6.962;2022-08-05T21:13:10;101998.16;;;18.63;58.71
49979;BME280;35869;50.990;6.962;2022-08-05T21:18:10;102001.63;;;18.63;58.23
49979;BME280;35869;50.990;6.962;2022-08-05T21:23:11;102003.03;;;18.55;58.64
49979;BME280;35869;50.990;6.962;2022-08-05T21:28:11;102002.78;;;18.44;59.09
49979;BME280;35869;50.990;6.962;2022-08-05T21:33:11;102015.34;;;18.38;58.94
49979;BME280;35869;50.990;6.962;2022-08-05T21:38:11;102018.81;;;18.39;59.08
49979;BME280;35869;50.990;6.962;2022-08-05T21:43:12;102027.91;;;18.33;59.14
49979;BME280;35869;50.990;6.962;2022-08-05T21:48:12;102031.94;;;18.25;60.06
49979;BME280;35869;50.990;6.962;2022-08-05T21:53:12;102030.56;;;18.18;60.97
49979;BME280;35869;50.990;6.962;2022-08-05T21:58:13;102035.91;;;18.16;59.56
49979;BME280;35869;50.990;6.962;2022-08-05T22:03:13;102045.16;;;18.07;60.13
49979;BME280;35869;50.990;6.962;2022-08-05T22:08:13;102047.28;;;18.01;59.79
49979;BME280;35869;50.990;6.962;2022-08-05T22:13:14;102052.59;;;17.99;60.75
49979;BME280;35869;50.990;6.962;2022-08-05T22:18:14;102052.28;;;17.90;61.33
49979;BME280;35869;50.990;6.962;2022-08-05T22:23:36;102066.19;;;17.92;61.99
49979;BME280;35869;50.990;6.962;2022-08-05T22:28:39;102059.13;;;17.92;61.63
49979;BME280;35869;50.990;6.962;2022-08-05T22:33:39;102061.81;;;17.75;63.20
49979;BME280;35869;50.990;6.962;2022-08-05T22:38:40;102068.63;;;17.62;64.97
49979;BME280;35869;50.990;6.962;2022-08-05T22:43:40;102074.97;;;17.75;63.61
49979;BME280;35869;50.990;6.962;2022-08-05T22:48:41;102073.47;;;17.69;63.30
49979;BME280;35869;50.990;6.962;2022-08-05T22:53:41;102085.34;;;17.43;63.93
49979;BME280;35869;50.990;6.962;2022-08-05T22:58:42;102085.88;;;17.50;62.90
49979;BME280;35869;50.990;6.962;2022-08-05T23:03:42;102091.78;;;17.38;64.29
49979;BME280;35869;50.990;6.962;2022-08-05T23:08:42;102104.81;;;17.39;63.71
49979;BME280;35869;50.990;6.962;2022-08-05T23:13:42;102105.13;;;17.33;63.72
49979;BME280;35869;50.990;6.962;2022-08-05T23:18:43;102109.16;;;17.23;64.80
49979;BME280;35869;50.990;6.962;2022-08-05T23:23:43;102125.09;;;17.20;63.69
49979;BME280;35869;50.990;6.962;2022-08-05T23:28:43;102130.47;;;17.17;63.13
49979;BME280;35869;50.990;6.962;2022-08-05T23:33:44;102141.44;;;17.08;63.81
49979;BME280;35869;50.990;6.962;2022-08-05T23:38:44;102152.09;;;17.04;63.09
49979;BME280;35869;50.990;6.962;2022-08-05T23:43:44;102152.84;;;16.89;64.27
49979;BME280;35869;50.990;6.962;2022-08-05T23:48:45;102159.81;;;16.90;65.58
49979;BME280;35869;50.990;6.962;2022-08-05T23:53:45;102166.28;;;16.83;64.60
49979;BME280;35869;50.990;6.962;2022-08-05T23:58:45;102165.06;;;16.90;64.16
